John Glenn Columbus International (CMH)

 

Airport Diagram
Current Weather/Forecast (MVFR Conditions)
METAR KCMH 091351Z 08011G22KT 10SM -RA BKN012 OVC050 07/05 A2984 RMK AO2 SLP106 P0001 T00670050
TAF KCMH 091415Z 0914/1012 09012G20KT P6SM -SHRA BKN009 OVC050 TEMPO 0914/0916 3SM -TSRA BR BKN009CB FM091600 14010KT P6SM -SHRA OVC009 TEMPO 0920/0922 3SM -TSRA BR OVC007CB FM092200 01014KT P6SM VCSH OVC008 FM100100 01012KT P6SM OVC009 FM100400 01009KT P6SM OVC012

Airport Information

All Charts
General
Chart Name View
AIRPORT DIAGRAM
TAKEOFF MINIMUMS
ALTERNATE MINIMUMS
HOT SPOT

Arrivals
Chart Name Download
BREMN FIVE
BREMN FIVE, CONT.1
GAILL THREE (RNAV)
GUNNE FOUR
GUNNE FOUR, CONT.1

Approaches
Chart Name Download
ILS OR LOC RWY 10L
ILS OR LOC RWY 10R
ILS OR LOC RWY 28L
ILS OR LOC RWY 28R
ILS RWY 10R (SA CAT I - II)
ILS RWY 28L (SA CAT I - II)
RNAV (RNP) Z RWY 10L
RNAV (RNP) Z RWY 10R
RNAV (RNP) Z RWY 28L
RNAV (RNP) Z RWY 28R
RNAV (GPS) Y RWY 10L
RNAV (GPS) Y RWY 10R
RNAV (GPS) Y RWY 28L
RNAV (GPS) Y RWY 28R


Airport Statistics
Departures Arrivals Local
All Collected Stats since June 2016: 1903 1542 66
2021 Stats: 278 238 19
May Stats: 28 28 2

Inbound Traffic (Arrivals) - 1
Callsign Aircraft Rules Departure Route
UAL424 B738/L IFR KIAD BUNZZ3 RAMAY Q72 HACKS NIKLS

Outbound Traffic (Departures) - 1
Callsign Aircraft Rules Destination Route
AAL2370 A20N/L IFR KMCI DQN PLASH DONVE UIN BQS BQS6

Local Traffic (Pattern) - 0

No local traffic.